Linden, Indiana
Current Conditions -  °F | °C
As of 3:54 PM on Sunday 21 Dec 2014 (Local Time) from KLAF Reporting Station
Clear Clear  
Wind Chill: 30°   Ceiling: Unl
Heat Index: 37°   Visibility: 10mi
Dew Point: 29°   Wind: 9mph
Humidity: 73%   Direction: 150°SSE
Pressure: 30.13"   Gusts: NA
Location:  40.19°N, 86.9°W
Report Text: KLAF 212054Z 15008KT 10SM CLR 03/M02 A3013 RMK AO2 SLP209 T00281017 56023
Loading
Personal Weather Stations






























Interactive Weather Map New forecast layout! Learn more

10-Day Weather Forecast

Advertisements
Track Severe Weather on mobile